sensor_id;sensor_type;location;lat;lon;timestamp;temperature;humidity
20590;DHT22;10453;50.810;12.540;2023-11-21T00:02:49;7.90;99.90
20590;DHT22;10453;50.810;12.540;2023-11-21T00:07:07;7.90;99.90
20590;DHT22;10453;50.810;12.540;2023-11-21T00:11:24;7.90;99.90
20590;DHT22;10453;50.810;12.540;2023-11-21T00:15:42;7.90;99.90
20590;DHT22;10453;50.810;12.540;2023-11-21T00:19:59;8.00;99.90
20590;DHT22;10453;50.810;12.540;2023-11-21T00:24:17;8.00;99.90
20590;DHT22;10453;50.810;12.540;2023-11-21T00:28:34;8.00;99.90
20590;DHT22;10453;50.810;12.540;2023-11-21T00:32:52;8.10;99.90
20590;DHT22;10453;50.810;12.540;2023-11-21T00:37:09;8.00;99.90
20590;DHT22;10453;50.810;12.540;2023-11-21T00:41:27;8.00;99.90
20590;DHT22;10453;50.810;12.540;2023-11-21T00:45:44;8.10;99.90
20590;DHT22;10453;50.810;12.540;2023-11-21T00:50:02;8.20;99.90
20590;DHT22;10453;50.810;12.540;2023-11-21T00:54:19;8.10;99.90
20590;DHT22;10453;50.810;12.540;2023-11-21T00:58:37;8.10;99.90
20590;DHT22;10453;50.810;12.540;2023-11-21T01:02:54;8.00;99.90
20590;DHT22;10453;50.810;12.540;2023-11-21T01:07:12;7.90;99.90
20590;DHT22;10453;50.810;12.540;2023-11-21T01:11:30;7.90;99.90
20590;DHT22;10453;50.810;12.540;2023-11-21T01:15:47;8.00;99.90
20590;DHT22;10453;50.810;12.540;2023-11-21T01:20:05;8.00;99.90
20590;DHT22;10453;50.810;12.540;2023-11-21T01:24:28;8.00;99.90
20590;DHT22;10453;50.810;12.540;2023-11-21T01:28:46;8.00;99.90
20590;DHT22;10453;50.810;12.540;2023-11-21T01:33:06;8.00;99.90
20590;DHT22;10453;50.810;12.540;2023-11-21T01:37:23;8.00;99.90
20590;DHT22;10453;50.810;12.540;2023-11-21T01:41:41;8.00;99.90
20590;DHT22;10453;50.810;12.540;2023-11-21T01:46:02;7.90;99.90
20590;DHT22;10453;50.810;12.540;2023-11-21T01:50:19;7.90;99.90
20590;DHT22;10453;50.810;12.540;2023-11-21T01:54:39;7.90;99.90
20590;DHT22;10453;50.810;12.540;2023-11-21T01:58:57;8.00;99.90
20590;DHT22;10453;50.810;12.540;2023-11-21T02:03:15;7.90;99.90
20590;DHT22;10453;50.810;12.540;2023-11-21T02:07:32;8.00;99.90
20590;DHT22;10453;50.810;12.540;2023-11-21T02:11:49;7.90;99.90
20590;DHT22;10453;50.810;12.540;2023-11-21T02:16:07;7.90;99.90
20590;DHT22;10453;50.810;12.540;2023-11-21T02:20:26;7.90;99.90
20590;DHT22;10453;50.810;12.540;2023-11-21T02:24:43;7.90;99.90
20590;DHT22;10453;50.810;12.540;2023-11-21T02:29:00;7.90;99.90
20590;DHT22;10453;50.810;12.540;2023-11-21T02:33:18;7.90;99.90
20590;DHT22;10453;50.810;12.540;2023-11-21T02:37:37;7.90;99.90
20590;DHT22;10453;50.810;12.540;2023-11-21T02:41:56;7.90;99.90
20590;DHT22;10453;50.810;12.540;2023-11-21T02:46:15;7.90;99.90
20590;DHT22;10453;50.810;12.540;2023-11-21T02:50:33;7.90;99.90
20590;DHT22;10453;50.810;12.540;2023-11-21T02:54:52;7.90;99.90
20590;DHT22;10453;50.810;12.540;2023-11-21T02:59:10;8.00;99.90
20590;DHT22;10453;50.810;12.540;2023-11-21T03:03:28;7.90;99.90
20590;DHT22;10453;50.810;12.540;2023-11-21T03:07:46;7.90;99.90
20590;DHT22;10453;50.810;12.540;2023-11-21T03:12:03;7.80;99.90
20590;DHT22;10453;50.810;12.540;2023-11-21T03:16:21;7.80;99.90
20590;DHT22;10453;50.810;12.540;2023-11-21T03:20:38;7.70;99.90
20590;DHT22;10453;50.810;12.540;2023-11-21T03:24:56;7.70;99.90
20590;DHT22;10453;50.810;12.540;2023-11-21T03:29:13;7.70;99.90
20590;DHT22;10453;50.810;12.540;2023-11-21T03:33:31;7.70;99.90
20590;DHT22;10453;50.810;12.540;2023-11-21T03:37:48;7.80;99.90
20590;DHT22;10453;50.810;12.540;2023-11-21T03:42:06;7.80;99.90
20590;DHT22;10453;50.810;12.540;2023-11-21T03:46:23;7.80;99.90
20590;DHT22;10453;50.810;12.540;2023-11-21T03:50:41;7.80;99.90
20590;DHT22;10453;50.810;12.540;2023-11-21T03:54:59;7.70;99.90
20590;DHT22;10453;50.810;12.540;2023-11-21T03:59:16;7.70;99.90
20590;DHT22;10453;50.810;12.540;2023-11-21T04:03:34;7.60;99.90
20590;DHT22;10453;50.810;12.540;2023-11-21T04:07:52;7.60;99.90
20590;DHT22;10453;50.810;12.540;2023-11-21T04:12:09;7.60;99.90
20590;DHT22;10453;50.810;12.540;2023-11-21T04:16:27;7.60;99.90
20590;DHT22;10453;50.810;12.540;2023-11-21T04:20:44;7.50;99.90
20590;DHT22;10453;50.810;12.540;2023-11-21T04:25:02;7.60;99.90
20590;DHT22;10453;50.810;12.540;2023-11-21T04:29:20;7.60;99.90
20590;DHT22;10453;50.810;12.540;2023-11-21T04:33:38;7.50;99.90
20590;DHT22;10453;50.810;12.540;2023-11-21T04:37:55;7.40;99.90
20590;DHT22;10453;50.810;12.540;2023-11-21T04:42:14;7.30;99.90
20590;DHT22;10453;50.810;12.540;2023-11-21T04:46:35;7.20;99.90
20590;DHT22;10453;50.810;12.540;2023-11-21T04:56:37;7.10;99.90
20590;DHT22;10453;50.810;12.540;2023-11-21T05:01:24;7.10;99.90
20590;DHT22;10453;50.810;12.540;2023-11-21T05:05:51;6.90;99.90
20590;DHT22;10453;50.810;12.540;2023-11-21T05:10:10;6.80;99.90
20590;DHT22;10453;50.810;12.540;2023-11-21T05:14:31;7.00;99.90
20590;DHT22;10453;50.810;12.540;2023-11-21T05:19:18;7.00;99.90
20590;DHT22;10453;50.810;12.540;2023-11-21T05:23:38;7.00;99.90
20590;DHT22;10453;50.810;12.540;2023-11-21T05:27:55;7.10;99.90
20590;DHT22;10453;50.810;12.540;2023-11-21T05:32:16;7.00;99.90
20590;DHT22;10453;50.810;12.540;2023-11-21T05:36:56;7.00;99.90
20590;DHT22;10453;50.810;12.540;2023-11-21T05:41:19;7.00;99.90
20590;DHT22;10453;50.810;12.540;2023-11-21T05:45:40;6.90;99.90
20590;DHT22;10453;50.810;12.540;2023-11-21T05:49:59;6.90;99.90
20590;DHT22;10453;50.810;12.540;2023-11-21T05:54:21;6.70;99.90
20590;DHT22;10453;50.810;12.540;2023-11-21T05:58:41;6.60;99.90
20590;DHT22;10453;50.810;12.540;2023-11-21T06:03:00;6.50;99.90
20590;DHT22;10453;50.810;12.540;2023-11-21T06:07:21;6.40;99.90
20590;DHT22;10453;50.810;12.540;2023-11-21T06:11:41;6.30;99.90
20590;DHT22;10453;50.810;12.540;2023-11-21T06:15:59;6.00;99.90
20590;DHT22;10453;50.810;12.540;2023-11-21T06:20:47;5.80;99.90
20590;DHT22;10453;50.810;12.540;2023-11-21T06:25:13;5.70;99.90
20590;DHT22;10453;50.810;12.540;2023-11-21T06:29:31;5.50;99.90
20590;DHT22;10453;50.810;12.540;2023-11-21T06:34:17;5.40;99.90
20590;DHT22;10453;50.810;12.540;2023-11-21T06:38:35;5.20;99.90
20590;DHT22;10453;50.810;12.540;2023-11-21T06:42:55;5.30;99.90
20590;DHT22;10453;50.810;12.540;2023-11-21T06:47:16;5.20;99.90
20590;DHT22;10453;50.810;12.540;2023-11-21T06:51:34;5.30;99.90
20590;DHT22;10453;50.810;12.540;2023-11-21T06:55:51;5.50;99.90
20590;DHT22;10453;50.810;12.540;2023-11-21T07:00:09;5.60;99.90
20590;DHT22;10453;50.810;12.540;2023-11-21T07:04:46;5.70;99.90
20590;DHT22;10453;50.810;12.540;2023-11-21T07:09:47;5.90;99.90
20590;DHT22;10453;50.810;12.540;2023-11-21T07:14:06;6.10;99.90
20590;DHT22;10453;50.810;12.540;2023-11-21T07:18:32;6.30;99.90
20590;DHT22;10453;50.810;12.540;2023-11-21T07:22:50;6.50;99.90
20590;DHT22;10453;50.810;12.540;2023-11-21T07:27:07;6.70;99.90
20590;DHT22;10453;50.810;12.540;2023-11-21T07:31:26;6.70;99.90
20590;DHT22;10453;50.810;12.540;2023-11-21T07:36:16;6.80;99.90
20590;DHT22;10453;50.810;12.540;2023-11-21T07:40:36;7.00;99.90
20590;DHT22;10453;50.810;12.540;2023-11-21T07:45:05;7.10;99.90
20590;DHT22;10453;50.810;12.540;2023-11-21T07:49:25;7.20;99.90
20590;DHT22;10453;50.810;12.540;2023-11-21T07:53:44;7.20;99.90
20590;DHT22;10453;50.810;12.540;2023-11-21T07:58:02;7.30;99.90
20590;DHT22;10453;50.810;12.540;2023-11-21T08:02:26;7.30;99.90
20590;DHT22;10453;50.810;12.540;2023-11-21T08:07:22;7.30;99.90
20590;DHT22;10453;50.810;12.540;2023-11-21T08:11:42;7.30;99.90
20590;DHT22;10453;50.810;12.540;2023-11-21T08:16:46;7.40;99.90
20590;DHT22;10453;50.810;12.540;2023-11-21T08:21:08;7.40;99.90
20590;DHT22;10453;50.810;12.540;2023-11-21T08:25:27;7.40;99.90
20590;DHT22;10453;50.810;12.540;2023-11-21T08:29:45;7.40;99.90
20590;DHT22;10453;50.810;12.540;2023-11-21T08:34:28;7.50;99.90
20590;DHT22;10453;50.810;12.540;2023-11-21T08:38:47;7.30;99.90
20590;DHT22;10453;50.810;12.540;2023-11-21T08:43:06;7.20;99.90
20590;DHT22;10453;50.810;12.540;2023-11-21T08:47:29;7.30;99.90
20590;DHT22;10453;50.810;12.540;2023-11-21T08:52:26;7.40;99.90
20590;DHT22;10453;50.810;12.540;2023-11-21T08:57:15;7.40;99.90
20590;DHT22;10453;50.810;12.540;2023-11-21T09:01:52;7.40;99.90
20590;DHT22;10453;50.810;12.540;2023-11-21T09:12:35;7.50;99.90
20590;DHT22;10453;50.810;12.540;2023-11-21T09:16:57;7.40;99.90
20590;DHT22;10453;50.810;12.540;2023-11-21T09:21:42;7.50;99.90
20590;DHT22;10453;50.810;12.540;2023-11-21T09:26:26;7.50;99.90
20590;DHT22;10453;50.810;12.540;2023-11-21T09:31:16;7.60;99.90
20590;DHT22;10453;50.810;12.540;2023-11-21T09:35:46;7.70;99.90
20590;DHT22;10453;50.810;12.540;2023-11-21T09:41:29;7.70;99.90
20590;DHT22;10453;50.810;12.540;2023-11-21T09:46:33;7.70;99.90
20590;DHT22;10453;50.810;12.540;2023-11-21T09:50:53;7.80;99.90
20590;DHT22;10453;50.810;12.540;2023-11-21T09:55:22;7.70;99.90
20590;DHT22;10453;50.810;12.540;2023-11-21T09:59:45;7.60;99.90
20590;DHT22;10453;50.810;12.540;2023-11-21T10:04:15;7.70;99.90
20590;DHT22;10453;50.810;12.540;2023-11-21T10:09:07;7.60;99.90
20590;DHT22;10453;50.810;12.540;2023-11-21T10:14:05;7.60;99.90
20590;DHT22;10453;50.810;12.540;2023-11-21T10:18:36;7.60;99.90
20590;DHT22;10453;50.810;12.540;2023-11-21T10:23:45;7.60;99.90
20590;DHT22;10453;50.810;12.540;2023-11-21T10:28:30;7.80;99.90
20590;DHT22;10453;50.810;12.540;2023-11-21T10:32:59;7.60;99.90
20590;DHT22;10453;50.810;12.540;2023-11-21T10:37:33;7.60;99.90
20590;DHT22;10453;50.810;12.540;2023-11-21T10:42:34;7.50;99.90
20590;DHT22;10453;50.810;12.540;2023-11-21T10:47:21;7.50;99.90
20590;DHT22;10453;50.810;12.540;2023-11-21T10:52:06;7.60;99.90
20590;DHT22;10453;50.810;12.540;2023-11-21T10:56:31;7.60;99.90
20590;DHT22;10453;50.810;12.540;2023-11-21T11:00:56;7.60;99.90
20590;DHT22;10453;50.810;12.540;2023-11-21T11:05:27;7.60;99.90
20590;DHT22;10453;50.810;12.540;2023-11-21T11:09:58;7.50;99.90
20590;DHT22;10453;50.810;12.540;2023-11-21T11:14:32;7.50;99.90
20590;DHT22;10453;50.810;12.540;2023-11-21T11:18:57;7.70;99.90
20590;DHT22;10453;50.810;12.540;2023-11-21T11:38:07;7.80;99.90
20590;DHT22;10453;50.810;12.540;2023-11-21T11:43:06;7.80;99.90
20590;DHT22;10453;50.810;12.540;2023-11-21T11:48:10;7.70;99.90
20590;DHT22;10453;50.810;12.540;2023-11-21T11:53:16;7.70;99.90
20590;DHT22;10453;50.810;12.540;2023-11-21T11:58:37;7.70;99.90
20590;DHT22;10453;50.810;12.540;2023-11-21T12:03:19;7.50;99.90
20590;DHT22;10453;50.810;12.540;2023-11-21T12:08:20;7.40;99.90
20590;DHT22;10453;50.810;12.540;2023-11-21T12:13:48;7.30;99.90
20590;DHT22;10453;50.810;12.540;2023-11-21T12:19:01;7.40;99.90
20590;DHT22;10453;50.810;12.540;2023-11-21T12:23:28;7.40;99.90
20590;DHT22;10453;50.810;12.540;2023-11-21T12:33:08;7.30;99.90
20590;DHT22;10453;50.810;12.540;2023-11-21T12:38:02;7.30;99.90
20590;DHT22;10453;50.810;12.540;2023-11-21T12:43:18;7.20;99.90
20590;DHT22;10453;50.810;12.540;2023-11-21T12:48:23;7.10;99.90
20590;DHT22;10453;50.810;12.540;2023-11-21T12:52:52;7.20;99.90
20590;DHT22;10453;50.810;12.540;2023-11-21T12:57:53;7.10;99.90
20590;DHT22;10453;50.810;12.540;2023-11-21T13:02:19;7.10;99.90
20590;DHT22;10453;50.810;12.540;2023-11-21T13:07:02;7.00;99.90
20590;DHT22;10453;50.810;12.540;2023-11-21T13:11:23;7.00;99.90
20590;DHT22;10453;50.810;12.540;2023-11-21T13:15:51;6.90;99.90
20590;DHT22;10453;50.810;12.540;2023-11-21T13:20:10;6.90;99.90
20590;DHT22;10453;50.810;12.540;2023-11-21T13:24:32;7.00;99.90
20590;DHT22;10453;50.810;12.540;2023-11-21T13:28:49;6.90;99.90
20590;DHT22;10453;50.810;12.540;2023-11-21T13:33:08;6.80;99.90
20590;DHT22;10453;50.810;12.540;2023-11-21T13:37:28;6.80;99.90
20590;DHT22;10453;50.810;12.540;2023-11-21T13:41:47;6.80;99.90
20590;DHT22;10453;50.810;12.540;2023-11-21T13:46:12;6.70;99.90
20590;DHT22;10453;50.810;12.540;2023-11-21T13:50:42;6.80;99.90
20590;DHT22;10453;50.810;12.540;2023-11-21T13:55:12;6.70;99.90
20590;DHT22;10453;50.810;12.540;2023-11-21T13:59:32;6.70;99.90
20590;DHT22;10453;50.810;12.540;2023-11-21T14:03:51;6.70;99.90
20590;DHT22;10453;50.810;12.540;2023-11-21T14:08:13;6.70;99.90
20590;DHT22;10453;50.810;12.540;2023-11-21T14:12:33;6.70;99.90
20590;DHT22;10453;50.810;12.540;2023-11-21T14:16:56;6.80;99.90
20590;DHT22;10453;50.810;12.540;2023-11-21T14:21:14;6.80;99.90
20590;DHT22;10453;50.810;12.540;2023-11-21T14:25:34;6.40;99.90
20590;DHT22;10453;50.810;12.540;2023-11-21T14:29:53;6.30;99.90
20590;DHT22;10453;50.810;12.540;2023-11-21T14:34:11;6.10;99.90
20590;DHT22;10453;50.810;12.540;2023-11-21T14:38:29;5.90;99.90
20590;DHT22;10453;50.810;12.540;2023-11-21T14:42:47;5.50;99.90
20590;DHT22;10453;50.810;12.540;2023-11-21T14:47:04;5.20;99.90
20590;DHT22;10453;50.810;12.540;2023-11-21T14:51:30;5.10;99.90
20590;DHT22;10453;50.810;12.540;2023-11-21T14:56:02;5.10;99.90
20590;DHT22;10453;50.810;12.540;2023-11-21T15:00:21;5.00;99.90
20590;DHT22;10453;50.810;12.540;2023-11-21T15:04:51;4.80;99.90
20590;DHT22;10453;50.810;12.540;2023-11-21T15:09:10;4.80;99.90
20590;DHT22;10453;50.810;12.540;2023-11-21T15:13:27;4.70;99.90
20590;DHT22;10453;50.810;12.540;2023-11-21T15:17:46;4.70;99.90
20590;DHT22;10453;50.810;12.540;2023-11-21T15:22:04;4.70;99.90
20590;DHT22;10453;50.810;12.540;2023-11-21T15:26:24;4.60;99.90
20590;DHT22;10453;50.810;12.540;2023-11-21T15:30:44;4.50;99.90
20590;DHT22;10453;50.810;12.540;2023-11-21T15:35:05;4.50;99.90
20590;DHT22;10453;50.810;12.540;2023-11-21T15:39:22;4.40;99.90
20590;DHT22;10453;50.810;12.540;2023-11-21T15:43:42;4.50;99.90
20590;DHT22;10453;50.810;12.540;2023-11-21T15:48:00;4.40;99.90
20590;DHT22;10453;50.810;12.540;2023-11-21T15:52:18;4.40;99.90
20590;DHT22;10453;50.810;12.540;2023-11-21T15:56:42;4.50;99.90
20590;DHT22;10453;50.810;12.540;2023-11-21T16:01:00;4.50;99.90
20590;DHT22;10453;50.810;12.540;2023-11-21T16:05:24;4.50;99.90
20590;DHT22;10453;50.810;12.540;2023-11-21T16:09:43;4.40;99.90
20590;DHT22;10453;50.810;12.540;2023-11-21T16:14:02;4.30;99.90
20590;DHT22;10453;50.810;12.540;2023-11-21T16:18:19;4.30;99.90
20590;DHT22;10453;50.810;12.540;2023-11-21T16:22:37;4.30;99.90
20590;DHT22;10453;50.810;12.540;2023-11-21T16:26:56;4.20;99.90
20590;DHT22;10453;50.810;12.540;2023-11-21T16:31:25;4.20;99.90
20590;DHT22;10453;50.810;12.540;2023-11-21T16:35:42;4.20;99.90
20590;DHT22;10453;50.810;12.540;2023-11-21T16:40:01;4.30;99.90
20590;DHT22;10453;50.810;12.540;2023-11-21T16:44:23;4.20;99.90
20590;DHT22;10453;50.810;12.540;2023-11-21T16:48:41;4.20;99.90
20590;DHT22;10453;50.810;12.540;2023-11-21T16:52:59;4.20;99.90
20590;DHT22;10453;50.810;12.540;2023-11-21T16:57:17;4.20;99.90
20590;DHT22;10453;50.810;12.540;2023-11-21T17:01:36;4.20;99.90
20590;DHT22;10453;50.810;12.540;2023-11-21T17:05:54;4.10;99.90
20590;DHT22;10453;50.810;12.540;2023-11-21T17:10:13;4.10;99.90
20590;DHT22;10453;50.810;12.540;2023-11-21T17:14:32;4.10;99.90
20590;DHT22;10453;50.810;12.540;2023-11-21T17:18:50;4.00;99.90
20590;DHT22;10453;50.810;12.540;2023-11-21T17:23:08;4.00;99.90
20590;DHT22;10453;50.810;12.540;2023-11-21T17:27:26;4.00;99.90
20590;DHT22;10453;50.810;12.540;2023-11-21T17:31:44;4.00;99.90
20590;DHT22;10453;50.810;12.540;2023-11-21T17:36:04;4.00;99.90
20590;DHT22;10453;50.810;12.540;2023-11-21T17:40:25;4.00;99.90
20590;DHT22;10453;50.810;12.540;2023-11-21T17:44:43;4.00;99.90
20590;DHT22;10453;50.810;12.540;2023-11-21T17:49:03;4.00;99.90
20590;DHT22;10453;50.810;12.540;2023-11-21T17:53:21;4.10;99.90
20590;DHT22;10453;50.810;12.540;2023-11-21T17:57:40;4.10;99.90
20590;DHT22;10453;50.810;12.540;2023-11-21T18:01:59;4.20;99.90
20590;DHT22;10453;50.810;12.540;2023-11-21T18:06:17;4.10;99.90
20590;DHT22;10453;50.810;12.540;2023-11-21T18:10:34;4.00;99.90
20590;DHT22;10453;50.810;12.540;2023-11-21T18:14:54;3.90;99.90
20590;DHT22;10453;50.810;12.540;2023-11-21T18:19:11;4.00;99.90
20590;DHT22;10453;50.810;12.540;2023-11-21T18:23:29;4.00;99.90
20590;DHT22;10453;50.810;12.540;2023-11-21T18:27:47;3.90;99.90
20590;DHT22;10453;50.810;12.540;2023-11-21T18:32:05;3.90;99.90
20590;DHT22;10453;50.810;12.540;2023-11-21T18:36:27;3.90;99.90
20590;DHT22;10453;50.810;12.540;2023-11-21T18:40:44;4.00;99.90
20590;DHT22;10453;50.810;12.540;2023-11-21T18:45:02;4.00;99.90
20590;DHT22;10453;50.810;12.540;2023-11-21T18:49:19;4.00;99.90
20590;DHT22;10453;50.810;12.540;2023-11-21T18:53:37;4.00;99.90
20590;DHT22;10453;50.810;12.540;2023-11-21T18:57:57;3.90;99.90
20590;DHT22;10453;50.810;12.540;2023-11-21T19:02:15;3.90;99.90
20590;DHT22;10453;50.810;12.540;2023-11-21T19:06:33;3.80;99.90
20590;DHT22;10453;50.810;12.540;2023-11-21T19:10:50;3.70;99.90
20590;DHT22;10453;50.810;12.540;2023-11-21T19:15:08;3.70;99.90
20590;DHT22;10453;50.810;12.540;2023-11-21T19:19:26;3.70;99.90
20590;DHT22;10453;50.810;12.540;2023-11-21T19:23:44;3.70;99.90
20590;DHT22;10453;50.810;12.540;2023-11-21T19:28:01;3.70;99.90
20590;DHT22;10453;50.810;12.540;2023-11-21T19:32:19;3.70;99.90
20590;DHT22;10453;50.810;12.540;2023-11-21T19:36:40;3.60;99.90
20590;DHT22;10453;50.810;12.540;2023-11-21T19:40:58;3.50;99.90
20590;DHT22;10453;50.810;12.540;2023-11-21T19:45:21;3.50;99.90
20590;DHT22;10453;50.810;12.540;2023-11-21T19:49:38;3.50;99.90
20590;DHT22;10453;50.810;12.540;2023-11-21T19:53:57;3.50;99.90
20590;DHT22;10453;50.810;12.540;2023-11-21T19:58:14;3.50;99.90
20590;DHT22;10453;50.810;12.540;2023-11-21T20:02:34;3.60;99.90
20590;DHT22;10453;50.810;12.540;2023-11-21T20:06:54;3.60;99.90
20590;DHT22;10453;50.810;12.540;2023-11-21T20:11:19;3.60;99.90
20590;DHT22;10453;50.810;12.540;2023-11-21T20:15:38;3.70;99.90
20590;DHT22;10453;50.810;12.540;2023-11-21T20:19:56;3.60;99.90
20590;DHT22;10453;50.810;12.540;2023-11-21T20:24:14;3.60;99.90
20590;DHT22;10453;50.810;12.540;2023-11-21T20:28:32;3.50;99.90
20590;DHT22;10453;50.810;12.540;2023-11-21T20:32:49;3.70;99.90
20590;DHT22;10453;50.810;12.540;2023-11-21T20:37:07;3.70;99.90
20590;DHT22;10453;50.810;12.540;2023-11-21T20:41:25;3.60;99.90
20590;DHT22;10453;50.810;12.540;2023-11-21T20:45:45;3.60;99.90
20590;DHT22;10453;50.810;12.540;2023-11-21T20:50:03;3.50;99.90
20590;DHT22;10453;50.810;12.540;2023-11-21T20:54:22;3.50;99.90
20590;DHT22;10453;50.810;12.540;2023-11-21T20:58:40;3.40;99.90
20590;DHT22;10453;50.810;12.540;2023-11-21T21:03:01;3.30;99.90
20590;DHT22;10453;50.810;12.540;2023-11-21T21:07:19;3.40;99.90
20590;DHT22;10453;50.810;12.540;2023-11-21T21:11:37;3.30;99.90
20590;DHT22;10453;50.810;12.540;2023-11-21T21:15:57;3.30;99.90
20590;DHT22;10453;50.810;12.540;2023-11-21T21:20:15;3.20;99.90
20590;DHT22;10453;50.810;12.540;2023-11-21T21:24:34;3.10;99.90
20590;DHT22;10453;50.810;12.540;2023-11-21T21:28:52;3.10;99.90
20590;DHT22;10453;50.810;12.540;2023-11-21T21:33:10;3.00;99.90
20590;DHT22;10453;50.810;12.540;2023-11-21T21:37:27;2.90;99.90
20590;DHT22;10453;50.810;12.540;2023-11-21T21:41:46;2.90;99.90
20590;DHT22;10453;50.810;12.540;2023-11-21T21:46:04;2.80;99.90
20590;DHT22;10453;50.810;12.540;2023-11-21T21:50:22;2.80;99.90
20590;DHT22;10453;50.810;12.540;2023-11-21T21:54:42;2.80;99.90
20590;DHT22;10453;50.810;12.540;2023-11-21T21:59:00;2.80;99.90
20590;DHT22;10453;50.810;12.540;2023-11-21T22:03:17;2.80;99.90
20590;DHT22;10453;50.810;12.540;2023-11-21T22:07:35;2.80;99.90
20590;DHT22;10453;50.810;12.540;2023-11-21T22:11:54;2.80;99.90
20590;DHT22;10453;50.810;12.540;2023-11-21T22:16:15;2.70;99.90
20590;DHT22;10453;50.810;12.540;2023-11-21T22:20:33;2.60;99.90
20590;DHT22;10453;50.810;12.540;2023-11-21T22:24:50;2.50;99.90
20590;DHT22;10453;50.810;12.540;2023-11-21T22:29:08;2.40;99.90
20590;DHT22;10453;50.810;12.540;2023-11-21T22:33:27;2.20;99.90
20590;DHT22;10453;50.810;12.540;2023-11-21T22:37:45;2.20;99.90
20590;DHT22;10453;50.810;12.540;2023-11-21T22:42:02;2.20;99.90
20590;DHT22;10453;50.810;12.540;2023-11-21T22:46:20;2.20;99.90
20590;DHT22;10453;50.810;12.540;2023-11-21T22:50:38;2.10;99.90
20590;DHT22;10453;50.810;12.540;2023-11-21T22:54:55;2.20;99.90
20590;DHT22;10453;50.810;12.540;2023-11-21T22:59:15;2.10;99.90
20590;DHT22;10453;50.810;12.540;2023-11-21T23:03:34;2.10;99.90
20590;DHT22;10453;50.810;12.540;2023-11-21T23:07:51;2.10;99.90
20590;DHT22;10453;50.810;12.540;2023-11-21T23:12:09;2.10;99.90
20590;DHT22;10453;50.810;12.540;2023-11-21T23:16:27;2.00;99.90
20590;DHT22;10453;50.810;12.540;2023-11-21T23:20:44;2.00;99.90
20590;DHT22;10453;50.810;12.540;2023-11-21T23:25:03;2.00;99.90
20590;DHT22;10453;50.810;12.540;2023-11-21T23:29:23;2.00;99.90
20590;DHT22;10453;50.810;12.540;2023-11-21T23:33:41;1.90;99.90
20590;DHT22;10453;50.810;12.540;2023-11-21T23:37:59;1.90;99.90
20590;DHT22;10453;50.810;12.540;2023-11-21T23:42:16;2.00;99.90
20590;DHT22;10453;50.810;12.540;2023-11-21T23:46:34;2.00;99.90
20590;DHT22;10453;50.810;12.540;2023-11-21T23:50:52;2.00;99.90
20590;DHT22;10453;50.810;12.540;2023-11-21T23:55:10;1.90;99.90
20590;DHT22;10453;50.810;12.540;2023-11-21T23:59:29;1.90;99.90
